Latest Coastal Weather Observations for Bairnsdale

IDV60701

Issued at 7:52 pm EST Monday 4 May 2026 (issued every 10 minutes, with the page automatically refreshed every 10 minutes)

About coastal observations | Map of coastal stations | Coastal observations for VIC | Marine services | Other Formats
Station Details ID: 085279 Name: BAIRNSDALE AIRPORT Lat: -37.88 Lon: 147.57 Height: 49.4 m
Data from the previous 72 hours. | See also: Recent months at Bairnsdale
Date/Time
EST
Wind Sea
Height
m
Swell Vis
km
Cloud Weather Temp
°C
Press
MSL
hPa
Rain since
9am
mm
Dir  Spd
kts
Gust
kts
Height
m
Period
s
Dir
04/07:30pm NNW 7 9 - - - - 10 - - 15.3 1011.7 0.0
04/07:00pm NNW 7 10 - - - - 10 - - 14.9 1011.8 0.0
04/06:30pm NNW 13 18 - - - - 10 - - 16.3 1011.4 0.0
04/06:00pm NNW 10 16 - - - - 10 - - 16.7 1011.2 0.0
04/05:30pm NW 7 11 - - - - 10 - - 16.2 1011.3 0.0
04/05:00pm NW 12 17 - - - - 10 - - 17.7 1010.7 0.0
04/04:30pm NW 13 19 - - - - 10 - - 18.8 1010.5 0.0
04/04:00pm NNW 13 18 - - - - 10 - - 19.4 1010.5 0.0
04/03:30pm NNW 15 22 - - - - 10 - - 19.8 1010.5 0.0
04/03:00pm NNW 15 22 - - - - 10 - - 20.1 1010.4 0.0
04/02:30pm NNW 13 19 - - - - 10 - - 20.3 1010.4 0.0
04/02:00pm NNW 15 21 - - - - 10 - - 20.2 1010.6 0.0
04/01:30pm NNW 15 24 - - - - 10 - - 20.4 1010.9 0.0
04/01:00pm NNW 13 22 - - - - 10 - - 20.2 1011.3 0.0
04/12:30pm NNW 13 18 - - - - 10 - - 19.6 1011.8 0.0
04/12:00pm NW 9 14 - - - - 10 - - 19.6 1012.5 0.0
04/11:30am NNW 10 17 - - - - 10 - - 19.1 1012.9 0.0
04/11:00am NNW 11 15 - - - - 10 - - 18.8 1013.2 0.0
04/10:30am NNW 11 16 - - - - 10 - - 18.5 1013.3 0.0
04/10:00am N 11 17 - - - - 10 - - 18.0 1013.4 0.0
04/09:30am N 10 14 - - - - 10 - - 17.1 1013.4 0.0
04/09:00am NW 8 11 - - - - 10 - - 16.0 1013.6 13.4
04/08:30am NW 7 10 - - - - 10 - - 14.4 1013.7 13.4
04/08:00am NW 5 7 - - - - 10 - - 12.7 1013.5 13.4
04/07:30am NW 6 7 - - - - 10 - - 10.5 1013.2 13.4
04/07:00am NW 6 7 - - - - 10 - - 9.9 1012.6 13.4
04/06:30am NW 5 7 - - - - 10 - - 10.1 1012.3 13.4
04/06:00am NNW 7 8 - - - - 10 - - 11.1 1012.7 13.4
04/05:30am N 7 9 - - - - 10 - - 12.3 1012.7 13.4
04/05:00am N 6 8 - - - - 10 Mostly clear - 13.0 1012.5 13.4
04/04:30am NW 5 7 - - - - 10 Partly cloudy - 13.3 1012.5 13.4
04/04:00am WNW 6 7 - - - - 10 Partly cloudy - 13.7 1012.4 13.4
04/03:40am NNW 4 5 - - - - 10 Partly cloudy - 14.2 1012.0 13.4
04/03:30am NW 4 5 - - - - 10 Partly cloudy - 14.4 1011.9 13.4
04/03:21am W 4 5 - - - - 10 Partly cloudy - 14.5 1011.9 13.4
04/03:00am CALM 0 0 - - - - 10 Cloudy Rain 14.8 1012.4 13.2
04/02:39am SSW 5 6 - - - - 10 Mostly clear - 14.8 1012.6 13.0
04/02:30am SSW 5 7 - - - - 6 Mostly clear - 15.1 1012.5 13.0
04/02:18am SW 5 7 - - - - 4 Mostly clear - 15.0 1013.1 13.0
04/02:00am NNW 3 5 - - - - 10 Partly cloudy - 15.1 1013.0 13.0
04/01:30am WNW 1 5 - - - - 10 Partly cloudy - 15.4 1012.8 12.8
04/01:00am N 3 4 - - - - 10 Mostly clear - 15.6 1013.2 12.2
04/12:30am N 2 4 - - - - 10 Mostly clear - 15.7 1013.5 11.6
04/12:00am ENE 5 8 - - - - 10 Cloudy Rain 16.0 1013.3 11.0
 
Date/Time
EST
Wind Sea
Height
m
Swell Vis
km
Cloud Weather Temp
°C
Press
MSL
hPa
Rain since
9am
mm
Dir  Spd
kts
Gust
kts
Height
m
Period
s
Dir
03/11:30pm NE 4 6 - - - - 10 Partly cloudy - 16.0 1013.2 9.4
03/11:00pm NNE 4 5 - - - - 10 Partly cloudy - 16.5 1013.1 8.4
03/10:30pm NNE 5 7 - - - - 10 Partly cloudy - 17.3 1013.0 8.0
03/10:00pm N 5 8 - - - - 10 Mostly clear - 17.4 1013.0 8.0
03/09:30pm W 5 8 - - - - 10 Cloudy - 16.5 1012.8 7.8
03/09:00pm NNE 7 10 - - - - 10 Cloudy Recent precip. 17.5 1011.9 7.8
03/08:30pm N 9 13 - - - - 10 Mostly clear - 17.8 1013.2 7.4
03/08:00pm NNW 9 13 - - - - 10 Mostly clear - 17.6 1013.3 5.8
03/07:30pm NW 5 6 - - - - 10 Mostly clear - 17.8 1012.5 4.2
03/07:08pm NNW 4 6 - - - - 10 Partly cloudy - 18.6 1012.3 3.4
03/07:00pm NNW 5 7 - - - - 7 Partly cloudy - 18.7 1012.4 3.2
03/06:52pm NW 8 9 - - - - 5 Mostly clear - 19.3 1012.4 2.6
03/06:30pm NNE 7 11 - - - - 10 Partly cloudy - 21.9 1011.4 0.6
03/06:00pm NNE 9 13 - - - - 10 Cloudy - 22.2 1010.9 0.6
03/05:30pm NE 7 10 - - - - 10 Mostly clear - 21.8 1010.5 0.6
03/05:00pm NE 7 13 - - - - 10 Partly cloudy - 21.9 1010.7 0.6
03/04:30pm NE 6 9 - - - - 10 Mostly clear - 22.4 1010.6 0.6
03/04:00pm N 4 6 - - - - 10 Partly cloudy - 22.7 1011.4 0.6
03/03:30pm NE 5 10 - - - - 10 Mostly clear - 22.7 1011.1 0.6
03/03:00pm NNE 9 14 - - - - 10 Cloudy Rain 21.9 1012.3 0.2
03/02:30pm NNE 10 15 - - - - 10 Mostly clear - 23.8 1012.0 0.0
03/02:00pm N 9 11 - - - - 10 - - 24.6 1011.9 0.0
03/01:30pm N 7 11 - - - - 10 - - 25.0 1011.7 0.0
03/01:00pm N 10 16 - - - - 10 - - 24.1 1011.9 0.0
03/12:30pm NNE 6 9 - - - - 10 - - 23.4 1012.3 0.0
03/12:00pm NE 9 13 - - - - 10 Mostly clear - 22.7 1012.7 0.0
03/11:30am ENE 5 7 - - - - 10 - - 22.0 1013.2 0.0
03/11:00am NE 7 10 - - - - 10 - - 20.6 1013.5 0.0
03/10:30am NE 5 8 - - - - 10 - - 18.8 1013.9 0.0
03/10:00am NNE 3 4 - - - - 10 - - 17.5 1014.5 0.0
03/09:30am NNE 2 4 - - - - 10 Partly cloudy - 18.4 1014.7 0.0
03/09:00am ENE 1 3 - - - - 10 Mostly clear - 18.6 1015.1 0.0
03/08:30am ENE 6 7 - - - - 10 Mostly clear - 19.0 1015.0 0.0
03/08:00am ENE 7 9 - - - - 10 - - 18.8 1014.7 0.0
03/07:30am ENE 6 8 - - - - 10 Partly cloudy - 17.8 1014.8 0.0
03/07:00am ENE 4 5 - - - - 10 Mostly clear - 16.6 1014.6 0.0
03/06:30am ENE 5 6 - - - - 10 - - 16.1 1014.5 0.0
03/06:00am NE 8 9 - - - - 10 - - 16.0 1014.2 0.0
03/05:30am NE 6 7 - - - - 10 - - 15.1 1014.5 0.0
03/05:00am ENE 5 8 - - - - 10 - - 15.3 1014.7 0.0
03/04:30am NE 6 7 - - - - 10 Mostly clear - 14.4 1014.7 0.0
03/04:00am NE 7 8 - - - - 10 Mostly clear - 15.6 1014.8 0.0
03/03:30am ENE 7 8 - - - - 10 Partly cloudy - 16.5 1015.1 0.0
03/03:00am NE 4 5 - - - - 10 Mostly clear - 13.0 1015.5 0.0
03/02:30am NE 5 5 - - - - 10 Partly cloudy - 14.2 1015.7 0.0
03/02:00am NE 3 4 - - - - 10 - - 13.7 1015.7 0.0
03/01:30am NE 4 5 - - - - 10 - - 15.3 1015.8 0.0
03/01:00am NE 5 6 - - - - 10 - - 15.2 1016.1 0.0
03/12:30am ENE 3 4 - - - - 10 - - 13.0 1016.2 0.0
03/12:00am CALM 0 0 - - - - 10 - - 13.1 1016.6 0.0
 
Date/Time
EST
Wind Sea
Height
m
Swell Vis
km
Cloud Weather Temp
°C
Press
MSL
hPa
Rain since
9am
mm
Dir  Spd
kts
Gust
kts
Height
m
Period
s
Dir
02/11:30pm CALM 0 0 - - - - 10 - - 13.8 1017.1 0.0
02/11:00pm CALM 0 0 - - - - 10 - - 13.7 1017.3 0.0
02/10:30pm ENE 3 4 - - - - 10 - - 14.8 1017.4 0.0
02/10:00pm CALM 0 0 - - - - 10 - - 14.9 1017.7 0.0
02/09:30pm W 1 5 - - - - 10 - - 15.9 1017.8 0.0
02/09:00pm E 2 5 - - - - 10 Mostly clear - 15.1 1017.8 0.0
02/08:30pm NE 5 6 - - - - 10 - - 16.9 1017.8 0.0
02/08:00pm NE 5 6 - - - - 10 - - 17.1 1017.9 0.0
02/07:30pm NNE 1 4 - - - - 10 - - 17.4 1018.1 0.0
02/07:00pm NE 5 7 - - - - 10 - - 17.8 1018.2 0.0
02/06:30pm NE 5 6 - - - - 10 - - 17.7 1018.1 0.0
02/06:00pm ENE 7 8 - - - - 10 Mostly cloudy - 18.6 1017.8 0.0
02/05:30pm ENE 6 7 - - - - 10 - - 18.4 1017.7 0.0
02/05:00pm ENE 5 7 - - - - 10 - - 18.9 1017.8 0.0
02/04:30pm ENE 6 8 - - - - 10 - - 19.6 1017.7 0.0
02/04:00pm ENE 6 7 - - - - 10 - - 20.2 1017.8 0.0
02/03:30pm NE 5 7 - - - - 10 - - 21.2 1018.2 0.0
02/03:00pm NE 8 11 - - - - 10 - - 21.4 1018.2 0.0
02/02:30pm NNE 6 8 - - - - 10 - - 21.7 1018.4 0.0
02/02:00pm NNE 7 10 - - - - 10 - - 21.8 1018.7 0.0
02/01:30pm N 8 12 - - - - 10 - - 21.8 1019.1 0.0
02/01:00pm NNE 7 10 - - - - 10 - - 21.4 1019.2 0.0
02/12:30pm N 6 9 - - - - 10 - - 21.5 1019.7 0.0
02/12:00pm NNE 7 10 - - - - 10 - - 22.0 1020.2 0.0
02/11:30am NNE 8 12 - - - - 10 - - 22.5 1020.6 0.0
02/11:00am NNE 8 13 - - - - 10 - - 22.1 1020.9 0.0
02/10:30am N 8 11 - - - - 10 - - 22.1 1021.1 0.0
02/10:00am N 8 11 - - - - 10 - - 21.5 1021.3 0.0
02/09:30am NNE 6 10 - - - - 10 - - 20.0 1021.6 0.0
02/09:00am N 6 7 - - - - 10 - - 17.1 1021.9 0.0
02/08:30am N 5 7 - - - - 10 - - 15.4 1021.9 0.0
02/08:00am N 5 6 - - - - 10 - - 13.9 1021.8 0.0
02/07:30am N 5 7 - - - - 10 - - 12.3 1021.7 0.0
02/07:00am N 6 7 - - - - 10 - - 12.1 1021.6 0.0
02/06:30am NW 6 8 - - - - 10 - - 11.5 1021.5 0.0
02/06:00am NW 5 7 - - - - 10 - - 11.2 1021.4 0.0
02/05:30am NW 5 7 - - - - 10 - - 11.2 1021.3 0.0
02/05:00am NNW 4 5 - - - - 10 - - 11.5 1021.2 0.0
02/04:30am NNW 6 7 - - - - 10 - - 10.9 1021.2 0.0
02/04:00am NNW 5 7 - - - - 10 - - 11.0 1021.3 0.0
02/03:30am N 5 6 - - - - 10 - - 13.0 1021.4 0.0
02/03:00am N 4 5 - - - - 10 - - 11.6 1021.5 0.0
02/02:30am N 5 6 - - - - 10 - - 12.4 1021.8 0.0
02/02:00am N 5 6 - - - - 10 - - 11.6 1022.2 0.0
02/01:30am NNE 4 5 - - - - 10 - - 11.1 1022.4 0.0
02/01:00am N 4 5 - - - - 10 - - 11.4 1022.6 0.0
02/12:30am N 5 5 - - - - 10 - - 12.1 1022.8 0.0
02/12:00am NNW 3 5 - - - - 10 - - 11.3 1023.0 0.0
 
Date/Time
EST
Wind Sea
Height
m
Swell Vis
km
Cloud Weather Temp
°C
Press
MSL
hPa
Rain since
9am
mm
Dir  Spd
kts
Gust
kts
Height
m
Period
s
Dir
01/11:30pm N 4 5 - - - - 10 - - 12.5 1023.2 0.0
01/11:00pm N 4 5 - - - - 10 - - 12.8 1023.4 0.0
01/10:30pm NNW 5 6 - - - - 10 - - 12.7 1023.5 0.0
01/10:00pm NNW 4 5 - - - - 10 - - 12.8 1023.6 0.0
01/09:30pm NE 5 6 - - - - 10 - - 15.4 1023.7 0.0
01/09:00pm ENE 6 7 - - - - 10 - - 16.0 1023.6 0.0
01/08:30pm ENE 5 7 - - - - 10 Mostly clear - 16.1 1023.6 0.0
01/08:00pm E 3 4 - - - - 10 Partly cloudy - 16.0 1023.7 0.0

Other formats

Comma delimited format used in spreadsheet applications
http://www.bom.gov.au/fwo/IDV60701/IDV60701.94912.axf

JavaScript Object Notation format (JSON) in row-major order
http://www.bom.gov.au/fwo/IDV60701/IDV60701.94912.json

Data quality

Most of these data are generated automatically and are frequently updated. Quality checks on data are not normally performed. It is possible for incorrect values to appear. Refer to information at About Latest Weather Observations and please check the disclaimer before using these data.